CheckWX is a tool to help pilots better visualize weather data.  It is not intended as a substitute for an official pre-flight weather briefing.

16:55:09 UTC

KFPR TAF
Treasure Coast International Airport
Fort Pierce, Florida, USA
KFPR 181120Z 1812/1912 20005KT P6SM SCT250 FM181300 19008KT P6SM SCT020 SCT080 FM181800 16014G20KT P6SM VCTS SCT035CB BKN060 TEMPO 1820/1822 3SM TSRA BKN030CB FM190100 21004KT P6SM SCT050 BKN200

Jun-18@
12:00 UTC

Jun-18 @ 12:00 UTC

Jun-18@
13:00 UTC

Jun-18 @ 13:00 UTC

KFPR 181120Z 1812/1912 20005KT P6SM SCT250

Expired

Wind
  • 200° at 5 KTS
Cloud Levels
  • Scattered at 25,000' AGL

Jun-18@
13:00 UTC

Jun-18 @ 13:00 UTC

Jun-18@
18:00 UTC

Jun-18 @ 18:00 UTC

FM181300 19008KT P6SM SCT020 SCT080

From

From Standard forecast or significant change

Wind
  • 190° at 8 KTS
Cloud Levels
  • Scattered at 2,000' AGL
  • Scattered at 8,000' AGL

Jun-18@
18:00 UTC

Jun-18 @ 18:00 UTC

Jun-19@
01:00 UTC

Jun-19 @ 01:00 UTC

FM181800 16014G20KT P6SM VCTS SCT035CB BKN060

From

From Standard forecast or significant change

Wind
  • 160° at 14 KTS
  • {Gusting to 20 KTS
Conditions
Area Thunderstorm
Cloud Levels
  • Scattered at 3,500' AGL
  • Broken at 6,000' AGL

Jun-18@
20:00 UTC

Jun-18 @ 20:00 UTC

Jun-18@
22:00 UTC

Jun-18 @ 22:00 UTC

TEMPO 1820/1822 3SM TSRA BKN030CB

Temporary

Temporary Changes expected for less than half the time period

Conditions
Thunderstorm, Rain
Cloud Levels
  • Broken at 3,000' AGL

Jun-19@
01:00 UTC

Jun-19 @ 01:00 UTC

Jun-19@
12:00 UTC

Jun-19 @ 12:00 UTC

FM190100 21004KT P6SM SCT050 BKN200

From

From Standard forecast or significant change

Wind
  • 210° at 4 KTS
Cloud Levels
  • Scattered at 5,000' AGL
  • Broken at 20,000' AGL